sensor_id;sensor_type;location;lat;lon;timestamp;P1;durP1;ratioP1;P2;durP2;ratioP2
58978;SDS011;44763;50.464;30.612;2023-08-06T00:00:01;11.90;;;7.80;;
58978;SDS011;44763;50.464;30.612;2023-08-06T00:02:09;16.00;;;9.00;;
58978;SDS011;44763;50.464;30.612;2023-08-06T00:04:10;11.40;;;8.40;;
58978;SDS011;44763;50.464;30.612;2023-08-06T00:06:12;13.40;;;7.30;;
58978;SDS011;44763;50.464;30.612;2023-08-06T00:08:14;12.20;;;9.00;;
58978;SDS011;44763;50.464;30.612;2023-08-06T00:10:16;20.90;;;10.30;;
58978;SDS011;44763;50.464;30.612;2023-08-06T00:12:19;8.20;;;7.50;;
58978;SDS011;44763;50.464;30.612;2023-08-06T00:14:20;8.00;;;6.70;;
58978;SDS011;44763;50.464;30.612;2023-08-06T00:16:22;11.70;;;7.70;;
58978;SDS011;44763;50.464;30.612;2023-08-06T00:18:24;8.00;;;7.20;;
58978;SDS011;44763;50.464;30.612;2023-08-06T00:20:25;19.90;;;9.40;;
58978;SDS011;44763;50.464;30.612;2023-08-06T00:22:27;9.30;;;7.60;;
58978;SDS011;44763;50.464;30.612;2023-08-06T00:24:29;14.70;;;9.90;;
58978;SDS011;44763;50.464;30.612;2023-08-06T00:26:31;13.00;;;8.80;;
58978;SDS011;44763;50.464;30.612;2023-08-06T00:28:32;14.00;;;8.20;;
58978;SDS011;44763;50.464;30.612;2023-08-06T00:30:35;10.60;;;8.20;;
58978;SDS011;44763;50.464;30.612;2023-08-06T00:32:37;10.70;;;8.30;;
58978;SDS011;44763;50.464;30.612;2023-08-06T00:34:38;17.90;;;9.30;;
58978;SDS011;44763;50.464;30.612;2023-08-06T00:36:40;17.30;;;10.00;;
58978;SDS011;44763;50.464;30.612;2023-08-06T00:38:42;8.60;;;7.80;;
58978;SDS011;44763;50.464;30.612;2023-08-06T00:40:44;21.30;;;8.70;;
58978;SDS011;44763;50.464;30.612;2023-08-06T00:42:45;14.50;;;7.90;;
58978;SDS011;44763;50.464;30.612;2023-08-06T00:44:48;12.90;;;9.20;;
58978;SDS011;44763;50.464;30.612;2023-08-06T00:46:50;16.80;;;9.50;;
58978;SDS011;44763;50.464;30.612;2023-08-06T00:48:52;8.70;;;7.40;;
58978;SDS011;44763;50.464;30.612;2023-08-06T00:50:55;12.60;;;7.40;;
58978;SDS011;44763;50.464;30.612;2023-08-06T00:52:56;13.10;;;8.60;;
58978;SDS011;44763;50.464;30.612;2023-08-06T00:54:59;9.70;;;8.00;;
58978;SDS011;44763;50.464;30.612;2023-08-06T00:57:01;9.00;;;8.20;;
58978;SDS011;44763;50.464;30.612;2023-08-06T00:59:04;8.00;;;7.40;;
58978;SDS011;44763;50.464;30.612;2023-08-06T01:01:07;8.40;;;7.70;;
58978;SDS011;44763;50.464;30.612;2023-08-06T01:03:09;7.20;;;6.80;;
58978;SDS011;44763;50.464;30.612;2023-08-06T01:05:11;15.80;;;8.00;;
58978;SDS011;44763;50.464;30.612;2023-08-06T01:07:19;9.50;;;8.10;;
58978;SDS011;44763;50.464;30.612;2023-08-06T01:14:06;10.40;;;8.50;;
58978;SDS011;44763;50.464;30.612;2023-08-06T01:16:18;7.80;;;7.20;;
58978;SDS011;44763;50.464;30.612;2023-08-06T01:18:20;8.00;;;7.30;;
58978;SDS011;44763;50.464;30.612;2023-08-06T01:20:27;9.70;;;6.80;;
58978;SDS011;44763;50.464;30.612;2023-08-06T01:22:30;9.60;;;7.90;;
58978;SDS011;44763;50.464;30.612;2023-08-06T01:24:31;8.60;;;7.70;;
58978;SDS011;44763;50.464;30.612;2023-08-06T01:26:35;7.50;;;6.80;;
58978;SDS011;44763;50.464;30.612;2023-08-06T01:28:52;8.20;;;7.60;;
58978;SDS011;44763;50.464;30.612;2023-08-06T01:33:32;8.30;;;6.80;;
58978;SDS011;44763;50.464;30.612;2023-08-06T01:35:36;7.90;;;7.40;;
58978;SDS011;44763;50.464;30.612;2023-08-06T01:37:39;9.10;;;7.30;;
58978;SDS011;44763;50.464;30.612;2023-08-06T01:39:43;8.00;;;7.30;;
58978;SDS011;44763;50.464;30.612;2023-08-06T01:41:45;7.30;;;6.50;;
58978;SDS011;44763;50.464;30.612;2023-08-06T01:43:47;9.40;;;8.00;;
58978;SDS011;44763;50.464;30.612;2023-08-06T01:45:49;7.90;;;7.20;;
58978;SDS011;44763;50.464;30.612;2023-08-06T01:47:50;9.10;;;7.40;;
58978;SDS011;44763;50.464;30.612;2023-08-06T01:49:52;8.10;;;7.40;;
58978;SDS011;44763;50.464;30.612;2023-08-06T01:51:54;8.30;;;7.70;;
58978;SDS011;44763;50.464;30.612;2023-08-06T01:53:56;8.60;;;7.80;;
58978;SDS011;44763;50.464;30.612;2023-08-06T01:55:58;7.70;;;7.10;;
58978;SDS011;44763;50.464;30.612;2023-08-06T01:58:00;10.20;;;7.20;;
58978;SDS011;44763;50.464;30.612;2023-08-06T02:00:01;7.80;;;7.10;;
58978;SDS011;44763;50.464;30.612;2023-08-06T02:02:13;7.80;;;7.20;;
58978;SDS011;44763;50.464;30.612;2023-08-06T02:04:14;9.10;;;7.30;;
58978;SDS011;44763;50.464;30.612;2023-08-06T02:06:17;7.70;;;7.10;;
58978;SDS011;44763;50.464;30.612;2023-08-06T02:08:19;8.20;;;7.40;;
58978;SDS011;44763;50.464;30.612;2023-08-06T02:10:21;8.20;;;7.50;;
58978;SDS011;44763;50.464;30.612;2023-08-06T02:12:23;7.90;;;7.30;;
58978;SDS011;44763;50.464;30.612;2023-08-06T02:14:24;7.90;;;7.30;;
58978;SDS011;44763;50.464;30.612;2023-08-06T02:16:26;9.20;;;7.70;;
58978;SDS011;44763;50.464;30.612;2023-08-06T02:18:28;7.00;;;6.60;;
58978;SDS011;44763;50.464;30.612;2023-08-06T02:20:30;8.10;;;7.20;;
58978;SDS011;44763;50.464;30.612;2023-08-06T02:22:31;7.30;;;6.70;;
58978;SDS011;44763;50.464;30.612;2023-08-06T02:24:33;7.10;;;6.70;;
58978;SDS011;44763;50.464;30.612;2023-08-06T02:26:35;7.60;;;7.00;;
58978;SDS011;44763;50.464;30.612;2023-08-06T02:28:37;8.00;;;7.30;;
58978;SDS011;44763;50.464;30.612;2023-08-06T02:30:39;8.00;;;7.50;;
58978;SDS011;44763;50.464;30.612;2023-08-06T02:32:41;7.60;;;6.90;;
58978;SDS011;44763;50.464;30.612;2023-08-06T02:34:43;8.00;;;7.30;;
58978;SDS011;44763;50.464;30.612;2023-08-06T02:36:44;6.90;;;6.50;;
58978;SDS011;44763;50.464;30.612;2023-08-06T02:38:46;7.40;;;6.80;;
58978;SDS011;44763;50.464;30.612;2023-08-06T02:40:48;9.90;;;7.70;;
58978;SDS011;44763;50.464;30.612;2023-08-06T02:42:50;7.70;;;7.20;;
58978;SDS011;44763;50.464;30.612;2023-08-06T02:44:52;7.00;;;6.30;;
58978;SDS011;44763;50.464;30.612;2023-08-06T02:46:56;7.50;;;6.90;;
58978;SDS011;44763;50.464;30.612;2023-08-06T02:48:58;7.20;;;6.80;;
58978;SDS011;44763;50.464;30.612;2023-08-06T02:51:00;7.70;;;7.20;;
58978;SDS011;44763;50.464;30.612;2023-08-06T02:53:04;8.90;;;8.30;;
58978;SDS011;44763;50.464;30.612;2023-08-06T02:55:06;7.40;;;7.00;;
58978;SDS011;44763;50.464;30.612;2023-08-06T02:57:10;7.40;;;6.50;;
58978;SDS011;44763;50.464;30.612;2023-08-06T02:59:12;7.70;;;7.10;;
58978;SDS011;44763;50.464;30.612;2023-08-06T03:01:38;7.80;;;6.50;;
58978;SDS011;44763;50.464;30.612;2023-08-06T03:03:47;7.90;;;7.40;;
58978;SDS011;44763;50.464;30.612;2023-08-06T03:05:54;7.70;;;7.00;;
58978;SDS011;44763;50.464;30.612;2023-08-06T03:08:05;10.10;;;7.30;;
58978;SDS011;44763;50.464;30.612;2023-08-06T03:10:08;7.90;;;7.10;;
58978;SDS011;44763;50.464;30.612;2023-08-06T03:12:10;8.10;;;7.40;;
58978;SDS011;44763;50.464;30.612;2023-08-06T03:14:14;7.00;;;6.60;;
58978;SDS011;44763;50.464;30.612;2023-08-06T03:16:17;6.80;;;6.10;;
58978;SDS011;44763;50.464;30.612;2023-08-06T03:18:22;7.10;;;6.70;;
58978;SDS011;44763;50.464;30.612;2023-08-06T03:20:25;6.70;;;6.10;;
58978;SDS011;44763;50.464;30.612;2023-08-06T03:22:27;6.60;;;6.20;;
58978;SDS011;44763;50.464;30.612;2023-08-06T03:24:28;6.70;;;6.30;;
58978;SDS011;44763;50.464;30.612;2023-08-06T03:26:30;6.70;;;6.20;;
58978;SDS011;44763;50.464;30.612;2023-08-06T03:28:32;7.30;;;6.70;;
58978;SDS011;44763;50.464;30.612;2023-08-06T03:30:35;6.70;;;6.20;;
58978;SDS011;44763;50.464;30.612;2023-08-06T03:32:37;6.60;;;6.10;;
58978;SDS011;44763;50.464;30.612;2023-08-06T03:34:39;6.60;;;6.10;;
58978;SDS011;44763;50.464;30.612;2023-08-06T03:36:41;7.10;;;6.50;;
58978;SDS011;44763;50.464;30.612;2023-08-06T03:38:43;6.80;;;6.30;;
58978;SDS011;44763;50.464;30.612;2023-08-06T03:40:46;6.20;;;5.80;;
58978;SDS011;44763;50.464;30.612;2023-08-06T03:42:48;6.70;;;6.30;;
58978;SDS011;44763;50.464;30.612;2023-08-06T03:44:52;6.60;;;5.90;;
58978;SDS011;44763;50.464;30.612;2023-08-06T03:46:54;7.10;;;6.40;;
58978;SDS011;44763;50.464;30.612;2023-08-06T03:48:56;5.50;;;5.20;;
58978;SDS011;44763;50.464;30.612;2023-08-06T03:50:59;6.00;;;5.60;;
58978;SDS011;44763;50.464;30.612;2023-08-06T03:53:03;6.60;;;5.40;;
58978;SDS011;44763;50.464;30.612;2023-08-06T03:55:05;6.40;;;6.00;;
58978;SDS011;44763;50.464;30.612;2023-08-06T03:57:07;6.00;;;5.60;;
58978;SDS011;44763;50.464;30.612;2023-08-06T03:59:10;6.50;;;5.20;;
58978;SDS011;44763;50.464;30.612;2023-08-06T04:01:11;6.00;;;5.50;;
58978;SDS011;44763;50.464;30.612;2023-08-06T04:03:17;5.50;;;5.10;;
58978;SDS011;44763;50.464;30.612;2023-08-06T04:05:19;5.90;;;5.40;;
58978;SDS011;44763;50.464;30.612;2023-08-06T04:07:21;5.20;;;4.80;;
58978;SDS011;44763;50.464;30.612;2023-08-06T04:09:23;6.20;;;5.60;;
58978;SDS011;44763;50.464;30.612;2023-08-06T04:11:24;4.90;;;4.70;;
58978;SDS011;44763;50.464;30.612;2023-08-06T04:13:26;5.10;;;4.80;;
58978;SDS011;44763;50.464;30.612;2023-08-06T04:15:28;5.30;;;4.90;;
58978;SDS011;44763;50.464;30.612;2023-08-06T04:17:31;5.50;;;5.20;;
58978;SDS011;44763;50.464;30.612;2023-08-06T04:19:33;5.40;;;4.40;;
58978;SDS011;44763;50.464;30.612;2023-08-06T04:21:35;5.20;;;4.90;;
58978;SDS011;44763;50.464;30.612;2023-08-06T04:23:38;5.10;;;4.80;;
58978;SDS011;44763;50.464;30.612;2023-08-06T04:25:41;5.00;;;4.70;;
58978;SDS011;44763;50.464;30.612;2023-08-06T04:27:43;5.90;;;5.50;;
58978;SDS011;44763;50.464;30.612;2023-08-06T04:29:45;5.10;;;4.60;;
58978;SDS011;44763;50.464;30.612;2023-08-06T04:31:47;5.00;;;4.20;;
58978;SDS011;44763;50.464;30.612;2023-08-06T04:33:48;5.20;;;4.80;;
58978;SDS011;44763;50.464;30.612;2023-08-06T04:35:54;5.20;;;4.90;;
58978;SDS011;44763;50.464;30.612;2023-08-06T04:37:57;4.80;;;4.50;;
58978;SDS011;44763;50.464;30.612;2023-08-06T04:40:00;4.80;;;4.40;;
58978;SDS011;44763;50.464;30.612;2023-08-06T04:42:02;5.40;;;4.90;;
58978;SDS011;44763;50.464;30.612;2023-08-06T04:44:04;5.30;;;5.00;;
58978;SDS011;44763;50.464;30.612;2023-08-06T04:46:06;4.80;;;4.30;;
58978;SDS011;44763;50.464;30.612;2023-08-06T04:48:08;4.10;;;3.90;;
58978;SDS011;44763;50.464;30.612;2023-08-06T04:50:09;4.80;;;4.60;;
58978;SDS011;44763;50.464;30.612;2023-08-06T04:52:11;4.30;;;4.10;;
58978;SDS011;44763;50.464;30.612;2023-08-06T04:54:13;5.50;;;5.00;;
58978;SDS011;44763;50.464;30.612;2023-08-06T04:56:15;5.00;;;4.30;;
58978;SDS011;44763;50.464;30.612;2023-08-06T04:58:17;5.20;;;4.80;;
58978;SDS011;44763;50.464;30.612;2023-08-06T05:00:18;5.00;;;4.60;;
58978;SDS011;44763;50.464;30.612;2023-08-06T05:02:20;5.50;;;5.00;;
58978;SDS011;44763;50.464;30.612;2023-08-06T05:04:22;4.80;;;4.50;;
58978;SDS011;44763;50.464;30.612;2023-08-06T05:08:28;5.00;;;4.60;;
58978;SDS011;44763;50.464;30.612;2023-08-06T05:10:29;8.60;;;5.40;;
58978;SDS011;44763;50.464;30.612;2023-08-06T05:12:31;5.00;;;4.70;;
58978;SDS011;44763;50.464;30.612;2023-08-06T05:14:33;4.90;;;4.60;;
58978;SDS011;44763;50.464;30.612;2023-08-06T05:16:34;5.20;;;4.80;;
58978;SDS011;44763;50.464;30.612;2023-08-06T05:18:36;5.00;;;4.70;;
58978;SDS011;44763;50.464;30.612;2023-08-06T05:20:40;4.70;;;4.50;;
58978;SDS011;44763;50.464;30.612;2023-08-06T05:22:43;4.90;;;4.60;;
58978;SDS011;44763;50.464;30.612;2023-08-06T05:24:45;4.20;;;3.80;;
58978;SDS011;44763;50.464;30.612;2023-08-06T05:26:47;5.30;;;4.50;;
58978;SDS011;44763;50.464;30.612;2023-08-06T05:28:49;5.00;;;4.60;;
58978;SDS011;44763;50.464;30.612;2023-08-06T05:30:51;4.70;;;4.30;;
58978;SDS011;44763;50.464;30.612;2023-08-06T05:32:52;4.80;;;4.30;;
58978;SDS011;44763;50.464;30.612;2023-08-06T05:34:55;5.90;;;5.30;;
58978;SDS011;44763;50.464;30.612;2023-08-06T05:36:57;5.50;;;5.00;;
58978;SDS011;44763;50.464;30.612;2023-08-06T05:38:59;4.70;;;4.50;;
58978;SDS011;44763;50.464;30.612;2023-08-06T05:41:01;4.40;;;4.20;;
58978;SDS011;44763;50.464;30.612;2023-08-06T05:43:03;5.40;;;4.60;;
58978;SDS011;44763;50.464;30.612;2023-08-06T05:45:05;4.70;;;4.50;;
58978;SDS011;44763;50.464;30.612;2023-08-06T05:47:07;4.40;;;4.10;;
58978;SDS011;44763;50.464;30.612;2023-08-06T05:49:09;3.80;;;3.60;;
58978;SDS011;44763;50.464;30.612;2023-08-06T05:51:11;4.70;;;4.30;;
58978;SDS011;44763;50.464;30.612;2023-08-06T05:53:14;5.40;;;4.10;;
58978;SDS011;44763;50.464;30.612;2023-08-06T05:55:16;4.70;;;4.40;;
58978;SDS011;44763;50.464;30.612;2023-08-06T05:57:18;4.40;;;4.10;;
58978;SDS011;44763;50.464;30.612;2023-08-06T05:59:19;3.60;;;3.50;;
58978;SDS011;44763;50.464;30.612;2023-08-06T06:01:21;4.60;;;4.40;;
58978;SDS011;44763;50.464;30.612;2023-08-06T06:03:23;4.30;;;4.10;;
58978;SDS011;44763;50.464;30.612;2023-08-06T06:05:25;4.10;;;3.90;;
58978;SDS011;44763;50.464;30.612;2023-08-06T06:07:27;4.30;;;3.90;;
58978;SDS011;44763;50.464;30.612;2023-08-06T06:09:30;3.40;;;3.10;;
58978;SDS011;44763;50.464;30.612;2023-08-06T06:11:31;4.30;;;3.90;;
58978;SDS011;44763;50.464;30.612;2023-08-06T06:13:33;3.60;;;3.50;;
58978;SDS011;44763;50.464;30.612;2023-08-06T06:15:35;4.50;;;4.20;;
58978;SDS011;44763;50.464;30.612;2023-08-06T06:17:39;3.70;;;3.40;;
58978;SDS011;44763;50.464;30.612;2023-08-06T06:19:41;4.20;;;3.90;;
58978;SDS011;44763;50.464;30.612;2023-08-06T06:21:43;3.60;;;3.40;;
58978;SDS011;44763;50.464;30.612;2023-08-06T06:23:45;3.50;;;3.10;;
58978;SDS011;44763;50.464;30.612;2023-08-06T06:25:48;3.90;;;3.60;;
58978;SDS011;44763;50.464;30.612;2023-08-06T06:27:50;4.20;;;3.90;;
58978;SDS011;44763;50.464;30.612;2023-08-06T06:29:52;7.10;;;3.30;;
58978;SDS011;44763;50.464;30.612;2023-08-06T06:31:56;3.90;;;3.70;;
58978;SDS011;44763;50.464;30.612;2023-08-06T06:33:57;3.20;;;3.10;;
58978;SDS011;44763;50.464;30.612;2023-08-06T06:35:59;4.20;;;3.60;;
58978;SDS011;44763;50.464;30.612;2023-08-06T06:38:01;3.70;;;3.50;;
58978;SDS011;44763;50.464;30.612;2023-08-06T06:40:04;6.40;;;3.70;;
58978;SDS011;44763;50.464;30.612;2023-08-06T06:42:06;3.90;;;3.50;;
58978;SDS011;44763;50.464;30.612;2023-08-06T06:44:10;4.40;;;3.80;;
58978;SDS011;44763;50.464;30.612;2023-08-06T06:46:12;3.90;;;3.60;;
58978;SDS011;44763;50.464;30.612;2023-08-06T06:48:14;3.70;;;3.50;;
58978;SDS011;44763;50.464;30.612;2023-08-06T06:50:16;4.60;;;3.10;;
58978;SDS011;44763;50.464;30.612;2023-08-06T06:52:18;5.40;;;3.10;;
58978;SDS011;44763;50.464;30.612;2023-08-06T06:54:20;3.70;;;3.40;;
58978;SDS011;44763;50.464;30.612;2023-08-06T06:56:22;3.40;;;3.20;;
58978;SDS011;44763;50.464;30.612;2023-08-06T06:58:24;3.40;;;3.20;;
58978;SDS011;44763;50.464;30.612;2023-08-06T07:00:25;6.10;;;3.10;;
58978;SDS011;44763;50.464;30.612;2023-08-06T07:02:27;3.50;;;3.40;;
58978;SDS011;44763;50.464;30.612;2023-08-06T07:04:29;3.10;;;2.90;;
58978;SDS011;44763;50.464;30.612;2023-08-06T07:06:31;3.60;;;3.20;;
58978;SDS011;44763;50.464;30.612;2023-08-06T07:08:34;3.40;;;3.30;;
58978;SDS011;44763;50.464;30.612;2023-08-06T07:10:37;3.20;;;2.90;;
58978;SDS011;44763;50.464;30.612;2023-08-06T07:12:42;3.80;;;3.20;;
58978;SDS011;44763;50.464;30.612;2023-08-06T07:14:46;3.40;;;3.20;;
58978;SDS011;44763;50.464;30.612;2023-08-06T07:16:48;3.90;;;3.50;;
58978;SDS011;44763;50.464;30.612;2023-08-06T07:18:50;3.00;;;2.90;;
58978;SDS011;44763;50.464;30.612;2023-08-06T07:20:54;3.90;;;3.20;;
58978;SDS011;44763;50.464;30.612;2023-08-06T07:22:57;3.50;;;3.20;;
58978;SDS011;44763;50.464;30.612;2023-08-06T07:24:59;5.50;;;3.10;;
58978;SDS011;44763;50.464;30.612;2023-08-06T07:27:01;6.00;;;3.70;;
58978;SDS011;44763;50.464;30.612;2023-08-06T07:29:03;3.80;;;3.60;;
58978;SDS011;44763;50.464;30.612;2023-08-06T07:31:05;4.40;;;2.80;;
58978;SDS011;44763;50.464;30.612;2023-08-06T07:33:10;3.00;;;2.80;;
58978;SDS011;44763;50.464;30.612;2023-08-06T07:35:12;3.50;;;3.30;;
58978;SDS011;44763;50.464;30.612;2023-08-06T07:39:18;4.40;;;3.50;;
58978;SDS011;44763;50.464;30.612;2023-08-06T07:41:19;5.60;;;4.40;;
58978;SDS011;44763;50.464;30.612;2023-08-06T07:43:21;4.10;;;3.80;;
58978;SDS011;44763;50.464;30.612;2023-08-06T07:45:23;4.40;;;3.40;;
58978;SDS011;44763;50.464;30.612;2023-08-06T07:47:25;3.70;;;3.50;;
58978;SDS011;44763;50.464;30.612;2023-08-06T07:49:27;3.60;;;3.30;;
58978;SDS011;44763;50.464;30.612;2023-08-06T07:51:30;4.50;;;3.50;;
58978;SDS011;44763;50.464;30.612;2023-08-06T07:53:33;6.70;;;3.30;;
58978;SDS011;44763;50.464;30.612;2023-08-06T07:55:35;6.30;;;3.40;;
58978;SDS011;44763;50.464;30.612;2023-08-06T07:57:37;4.80;;;4.10;;
58978;SDS011;44763;50.464;30.612;2023-08-06T07:59:39;3.70;;;3.50;;
58978;SDS011;44763;50.464;30.612;2023-08-06T08:01:41;4.10;;;3.80;;
58978;SDS011;44763;50.464;30.612;2023-08-06T08:03:43;5.00;;;3.20;;
58978;SDS011;44763;50.464;30.612;2023-08-06T08:05:45;4.50;;;4.10;;
58978;SDS011;44763;50.464;30.612;2023-08-06T08:07:47;5.60;;;3.60;;
58978;SDS011;44763;50.464;30.612;2023-08-06T08:09:49;4.80;;;4.30;;
58978;SDS011;44763;50.464;30.612;2023-08-06T08:11:51;3.90;;;3.30;;
58978;SDS011;44763;50.464;30.612;2023-08-06T08:13:54;3.90;;;3.70;;
58978;SDS011;44763;50.464;30.612;2023-08-06T08:15:56;3.90;;;3.70;;
58978;SDS011;44763;50.464;30.612;2023-08-06T08:17:59;4.20;;;3.60;;
58978;SDS011;44763;50.464;30.612;2023-08-06T08:20:02;4.80;;;3.70;;
58978;SDS011;44763;50.464;30.612;2023-08-06T08:22:04;5.00;;;4.60;;
58978;SDS011;44763;50.464;30.612;2023-08-06T08:24:06;5.00;;;4.50;;
58978;SDS011;44763;50.464;30.612;2023-08-06T08:26:08;8.10;;;7.30;;
58978;SDS011;44763;50.464;30.612;2023-08-06T08:28:10;9.80;;;5.60;;
58978;SDS011;44763;50.464;30.612;2023-08-06T08:30:11;4.70;;;4.30;;
58978;SDS011;44763;50.464;30.612;2023-08-06T08:32:14;6.90;;;3.20;;
58978;SDS011;44763;50.464;30.612;2023-08-06T08:34:17;4.40;;;3.50;;
58978;SDS011;44763;50.464;30.612;2023-08-06T08:36:19;3.40;;;3.00;;
58978;SDS011;44763;50.464;30.612;2023-08-06T08:38:22;4.00;;;2.90;;
58978;SDS011;44763;50.464;30.612;2023-08-06T08:40:25;3.40;;;3.10;;
58978;SDS011;44763;50.464;30.612;2023-08-06T08:42:34;3.60;;;3.30;;
58978;SDS011;44763;50.464;30.612;2023-08-06T08:44:37;6.70;;;3.90;;
58978;SDS011;44763;50.464;30.612;2023-08-06T08:46:40;3.60;;;3.20;;
58978;SDS011;44763;50.464;30.612;2023-08-06T08:48:43;4.00;;;3.80;;
58978;SDS011;44763;50.464;30.612;2023-08-06T08:50:46;4.00;;;3.40;;
58978;SDS011;44763;50.464;30.612;2023-08-06T08:54:54;3.70;;;3.50;;
58978;SDS011;44763;50.464;30.612;2023-08-06T08:56:56;7.00;;;4.20;;
58978;SDS011;44763;50.464;30.612;2023-08-06T08:58:58;3.90;;;3.70;;
58978;SDS011;44763;50.464;30.612;2023-08-06T09:01:01;4.70;;;4.20;;
58978;SDS011;44763;50.464;30.612;2023-08-06T09:03:05;4.20;;;2.80;;
58978;SDS011;44763;50.464;30.612;2023-08-06T09:05:08;5.10;;;3.90;;
58978;SDS011;44763;50.464;30.612;2023-08-06T09:07:13;5.90;;;3.50;;
58978;SDS011;44763;50.464;30.612;2023-08-06T09:09:25;9.20;;;4.00;;
58978;SDS011;44763;50.464;30.612;2023-08-06T09:11:30;6.30;;;2.90;;
58978;SDS011;44763;50.464;30.612;2023-08-06T09:13:40;4.00;;;3.30;;
58978;SDS011;44763;50.464;30.612;2023-08-06T09:15:43;4.10;;;3.80;;
58978;SDS011;44763;50.464;30.612;2023-08-06T09:17:46;4.20;;;3.60;;
58978;SDS011;44763;50.464;30.612;2023-08-06T09:19:47;5.30;;;3.60;;
58978;SDS011;44763;50.464;30.612;2023-08-06T09:21:51;6.10;;;4.20;;
58978;SDS011;44763;50.464;30.612;2023-08-06T09:23:53;4.00;;;3.10;;
58978;SDS011;44763;50.464;30.612;2023-08-06T09:25:55;5.70;;;3.70;;
58978;SDS011;44763;50.464;30.612;2023-08-06T09:27:58;3.60;;;3.20;;
58978;SDS011;44763;50.464;30.612;2023-08-06T09:30:01;4.30;;;3.60;;
58978;SDS011;44763;50.464;30.612;2023-08-06T09:32:02;4.10;;;3.80;;
58978;SDS011;44763;50.464;30.612;2023-08-06T09:34:09;11.00;;;4.40;;
58978;SDS011;44763;50.464;30.612;2023-08-06T09:36:13;4.80;;;3.30;;
58978;SDS011;44763;50.464;30.612;2023-08-06T09:38:15;4.30;;;3.50;;
58978;SDS011;44763;50.464;30.612;2023-08-06T09:42:36;5.10;;;3.40;;
58978;SDS011;44763;50.464;30.612;2023-08-06T09:44:38;4.90;;;3.70;;
58978;SDS011;44763;50.464;30.612;2023-08-06T09:48:47;7.70;;;3.70;;
58978;SDS011;44763;50.464;30.612;2023-08-06T09:50:49;4.70;;;3.50;;
58978;SDS011;44763;50.464;30.612;2023-08-06T09:52:53;4.00;;;3.70;;
58978;SDS011;44763;50.464;30.612;2023-08-06T09:54:56;3.60;;;3.30;;
58978;SDS011;44763;50.464;30.612;2023-08-06T09:57:00;4.20;;;3.90;;
58978;SDS011;44763;50.464;30.612;2023-08-06T09:59:02;6.70;;;3.90;;
58978;SDS011;44763;50.464;30.612;2023-08-06T10:01:07;3.70;;;3.10;;
58978;SDS011;44763;50.464;30.612;2023-08-06T10:03:10;6.90;;;3.00;;
58978;SDS011;44763;50.464;30.612;2023-08-06T10:05:12;4.40;;;3.70;;
58978;SDS011;44763;50.464;30.612;2023-08-06T10:07:14;3.70;;;2.80;;
58978;SDS011;44763;50.464;30.612;2023-08-06T10:09:18;3.70;;;3.30;;
58978;SDS011;44763;50.464;30.612;2023-08-06T10:13:05;4.70;;;3.90;;
58978;SDS011;44763;50.464;30.612;2023-08-06T10:15:11;5.90;;;3.20;;
58978;SDS011;44763;50.464;30.612;2023-08-06T10:17:16;4.80;;;4.20;;
58978;SDS011;44763;50.464;30.612;2023-08-06T10:19:19;3.20;;;3.00;;
58978;SDS011;44763;50.464;30.612;2023-08-06T10:21:24;7.70;;;4.20;;
58978;SDS011;44763;50.464;30.612;2023-08-06T10:23:36;4.40;;;4.10;;
58978;SDS011;44763;50.464;30.612;2023-08-06T10:25:42;3.50;;;3.20;;
58978;SDS011;44763;50.464;30.612;2023-08-06T10:29:49;3.20;;;3.10;;
58978;SDS011;44763;50.464;30.612;2023-08-06T10:32:09;3.80;;;3.50;;
58978;SDS011;44763;50.464;30.612;2023-08-06T10:34:11;4.40;;;3.00;;
58978;SDS011;44763;50.464;30.612;2023-08-06T10:36:18;4.30;;;3.00;;
58978;SDS011;44763;50.464;30.612;2023-08-06T10:38:20;6.00;;;3.30;;
58978;SDS011;44763;50.464;30.612;2023-08-06T10:40:23;3.30;;;3.10;;
58978;SDS011;44763;50.464;30.612;2023-08-06T10:42:27;7.40;;;3.50;;
58978;SDS011;44763;50.464;30.612;2023-08-06T10:44:31;3.40;;;3.10;;
58978;SDS011;44763;50.464;30.612;2023-08-06T10:46:33;8.60;;;3.20;;
58978;SDS011;44763;50.464;30.612;2023-08-06T10:50:40;2.80;;;2.30;;
58978;SDS011;44763;50.464;30.612;2023-08-06T10:52:42;3.00;;;2.70;;
58978;SDS011;44763;50.464;30.612;2023-08-06T10:54:48;4.00;;;2.30;;
58978;SDS011;44763;50.464;30.612;2023-08-06T10:56:50;6.20;;;2.60;;
58978;SDS011;44763;50.464;30.612;2023-08-06T10:58:56;9.00;;;3.20;;
58978;SDS011;44763;50.464;30.612;2023-08-06T11:01:00;5.80;;;2.40;;
58978;SDS011;44763;50.464;30.612;2023-08-06T11:03:03;4.30;;;2.80;;
58978;SDS011;44763;50.464;30.612;2023-08-06T11:05:06;5.70;;;3.10;;
58978;SDS011;44763;50.464;30.612;2023-08-06T11:07:09;3.80;;;2.30;;
58978;SDS011;44763;50.464;30.612;2023-08-06T11:09:11;4.30;;;3.10;;
58978;SDS011;44763;50.464;30.612;2023-08-06T11:11:14;9.30;;;3.30;;
58978;SDS011;44763;50.464;30.612;2023-08-06T11:13:17;6.90;;;3.10;;
58978;SDS011;44763;50.464;30.612;2023-08-06T11:15:20;3.70;;;3.20;;
58978;SDS011;44763;50.464;30.612;2023-08-06T11:17:22;3.40;;;2.70;;
58978;SDS011;44763;50.464;30.612;2023-08-06T11:19:24;6.40;;;2.70;;
58978;SDS011;44763;50.464;30.612;2023-08-06T11:21:26;4.20;;;2.70;;
58978;SDS011;44763;50.464;30.612;2023-08-06T11:23:28;4.80;;;2.80;;
58978;SDS011;44763;50.464;30.612;2023-08-06T11:25:30;4.60;;;2.30;;
58978;SDS011;44763;50.464;30.612;2023-08-06T11:27:32;3.60;;;2.50;;
58978;SDS011;44763;50.464;30.612;2023-08-06T11:29:36;4.30;;;2.80;;
58978;SDS011;44763;50.464;30.612;2023-08-06T11:31:39;4.00;;;2.00;;
58978;SDS011;44763;50.464;30.612;2023-08-06T11:33:41;5.50;;;2.90;;
58978;SDS011;44763;50.464;30.612;2023-08-06T11:35:42;2.60;;;2.40;;
58978;SDS011;44763;50.464;30.612;2023-08-06T11:37:45;2.90;;;2.60;;
58978;SDS011;44763;50.464;30.612;2023-08-06T11:39:48;4.00;;;2.40;;
58978;SDS011;44763;50.464;30.612;2023-08-06T11:41:51;8.70;;;3.10;;
58978;SDS011;44763;50.464;30.612;2023-08-06T11:43:56;7.00;;;2.60;;
58978;SDS011;44763;50.464;30.612;2023-08-06T11:45:58;5.90;;;2.50;;
58978;SDS011;44763;50.464;30.612;2023-08-06T11:48:01;3.70;;;2.60;;
58978;SDS011;44763;50.464;30.612;2023-08-06T11:50:04;3.00;;;2.50;;
58978;SDS011;44763;50.464;30.612;2023-08-06T11:52:08;6.80;;;2.70;;
58978;SDS011;44763;50.464;30.612;2023-08-06T11:54:30;3.90;;;2.20;;
58978;SDS011;44763;50.464;30.612;2023-08-06T11:56:35;7.20;;;2.00;;
58978;SDS011;44763;50.464;30.612;2023-08-06T11:58:37;5.10;;;1.80;;
58978;SDS011;44763;50.464;30.612;2023-08-06T12:00:39;2.30;;;2.10;;
58978;SDS011;44763;50.464;30.612;2023-08-06T12:02:45;5.00;;;1.70;;
58978;SDS011;44763;50.464;30.612;2023-08-06T12:05:00;4.30;;;2.50;;
58978;SDS011;44763;50.464;30.612;2023-08-06T12:07:05;2.90;;;2.30;;
58978;SDS011;44763;50.464;30.612;2023-08-06T12:09:10;2.00;;;1.90;;
58978;SDS011;44763;50.464;30.612;2023-08-06T12:11:12;7.20;;;1.70;;
58978;SDS011;44763;50.464;30.612;2023-08-06T12:13:15;2.90;;;1.90;;
58978;SDS011;44763;50.464;30.612;2023-08-06T12:15:17;7.20;;;2.10;;
58978;SDS011;44763;50.464;30.612;2023-08-06T12:17:19;4.10;;;1.80;;
58978;SDS011;44763;50.464;30.612;2023-08-06T12:19:21;6.70;;;2.60;;
58978;SDS011;44763;50.464;30.612;2023-08-06T12:21:25;8.70;;;2.90;;
58978;SDS011;44763;50.464;30.612;2023-08-06T12:23:26;2.80;;;2.10;;
58978;SDS011;44763;50.464;30.612;2023-08-06T12:25:28;2.10;;;2.00;;
58978;SDS011;44763;50.464;30.612;2023-08-06T12:27:30;6.10;;;2.20;;
58978;SDS011;44763;50.464;30.612;2023-08-06T12:29:32;3.70;;;1.60;;
58978;SDS011;44763;50.464;30.612;2023-08-06T12:31:33;4.10;;;2.10;;